sensor_id;sensor_type;location;lat;lon;timestamp;P1;durP1;ratioP1;P2;durP2;ratioP2
39674;SDS011;27790;50.840;4.386;2023-07-31T00:00:05;20.63;;;4.50;;
39674;SDS011;27790;50.840;4.386;2023-07-31T00:02:31;14.18;;;5.07;;
39674;SDS011;27790;50.840;4.386;2023-07-31T00:04:57;13.18;;;4.45;;
39674;SDS011;27790;50.840;4.386;2023-07-31T00:07:23;15.90;;;4.78;;
39674;SDS011;27790;50.840;4.386;2023-07-31T00:09:48;17.00;;;4.55;;
39674;SDS011;27790;50.840;4.386;2023-07-31T00:12:14;18.65;;;4.90;;
39674;SDS011;27790;50.840;4.386;2023-07-31T00:14:39;15.32;;;4.15;;
39674;SDS011;27790;50.840;4.386;2023-07-31T00:17:05;18.05;;;4.93;;
39674;SDS011;27790;50.840;4.386;2023-07-31T00:19:31;15.40;;;4.63;;
39674;SDS011;27790;50.840;4.386;2023-07-31T00:21:56;18.25;;;5.65;;
39674;SDS011;27790;50.840;4.386;2023-07-31T00:24:22;14.07;;;4.80;;
39674;SDS011;27790;50.840;4.386;2023-07-31T00:26:47;16.88;;;6.43;;
39674;SDS011;27790;50.840;4.386;2023-07-31T00:29:13;15.68;;;4.72;;
39674;SDS011;27790;50.840;4.386;2023-07-31T00:31:38;17.92;;;5.35;;
39674;SDS011;27790;50.840;4.386;2023-07-31T00:34:04;13.23;;;4.95;;
39674;SDS011;27790;50.840;4.386;2023-07-31T00:36:30;12.55;;;4.63;;
39674;SDS011;27790;50.840;4.386;2023-07-31T00:38:55;11.50;;;4.32;;
39674;SDS011;27790;50.840;4.386;2023-07-31T00:41:21;13.85;;;4.97;;
39674;SDS011;27790;50.840;4.386;2023-07-31T00:43:46;9.70;;;4.70;;
39674;SDS011;27790;50.840;4.386;2023-07-31T00:46:12;15.45;;;5.60;;
39674;SDS011;27790;50.840;4.386;2023-07-31T00:48:38;12.60;;;4.40;;
39674;SDS011;27790;50.840;4.386;2023-07-31T00:51:04;12.40;;;4.60;;
39674;SDS011;27790;50.840;4.386;2023-07-31T00:53:30;13.32;;;5.80;;
39674;SDS011;27790;50.840;4.386;2023-07-31T00:55:56;14.13;;;4.55;;
39674;SDS011;27790;50.840;4.386;2023-07-31T00:58:23;16.92;;;4.63;;
39674;SDS011;27790;50.840;4.386;2023-07-31T01:00:51;14.27;;;4.60;;
39674;SDS011;27790;50.840;4.386;2023-07-31T01:03:17;10.32;;;4.60;;
39674;SDS011;27790;50.840;4.386;2023-07-31T01:05:44;11.65;;;4.82;;
39674;SDS011;27790;50.840;4.386;2023-07-31T01:08:24;12.70;;;5.13;;
39674;SDS011;27790;50.840;4.386;2023-07-31T01:10:54;11.90;;;4.45;;
39674;SDS011;27790;50.840;4.386;2023-07-31T01:13:25;10.80;;;4.30;;
39674;SDS011;27790;50.840;4.386;2023-07-31T01:15:51;12.75;;;4.15;;
39674;SDS011;27790;50.840;4.386;2023-07-31T01:18:17;10.77;;;4.95;;
39674;SDS011;27790;50.840;4.386;2023-07-31T01:20:42;13.23;;;4.72;;
39674;SDS011;27790;50.840;4.386;2023-07-31T01:26:33;11.85;;;4.03;;
39674;SDS011;27790;50.840;4.386;2023-07-31T01:29:02;7.82;;;3.78;;
39674;SDS011;27790;50.840;4.386;2023-07-31T01:31:35;11.43;;;4.97;;
39674;SDS011;27790;50.840;4.386;2023-07-31T01:34:03;15.15;;;4.20;;
39674;SDS011;27790;50.840;4.386;2023-07-31T01:36:32;15.63;;;4.82;;
39674;SDS011;27790;50.840;4.386;2023-07-31T01:39:01;13.70;;;5.07;;
39674;SDS011;27790;50.840;4.386;2023-07-31T01:41:28;12.32;;;4.45;;
39674;SDS011;27790;50.840;4.386;2023-07-31T01:43:54;9.00;;;4.30;;
39674;SDS011;27790;50.840;4.386;2023-07-31T01:46:23;10.43;;;4.72;;
39674;SDS011;27790;50.840;4.386;2023-07-31T01:48:48;14.05;;;4.13;;
39674;SDS011;27790;50.840;4.386;2023-07-31T01:51:14;13.13;;;4.90;;
39674;SDS011;27790;50.840;4.386;2023-07-31T01:53:39;14.20;;;5.03;;
39674;SDS011;27790;50.840;4.386;2023-07-31T01:56:05;15.40;;;4.68;;
39674;SDS011;27790;50.840;4.386;2023-07-31T01:58:30;12.05;;;4.95;;
39674;SDS011;27790;50.840;4.386;2023-07-31T02:00:56;14.35;;;4.57;;
39674;SDS011;27790;50.840;4.386;2023-07-31T02:03:22;14.65;;;5.32;;
39674;SDS011;27790;50.840;4.386;2023-07-31T02:05:48;17.88;;;5.13;;
39674;SDS011;27790;50.840;4.386;2023-07-31T02:08:14;12.23;;;5.28;;
39674;SDS011;27790;50.840;4.386;2023-07-31T02:10:40;14.45;;;5.07;;
39674;SDS011;27790;50.840;4.386;2023-07-31T02:13:06;9.60;;;5.13;;
39674;SDS011;27790;50.840;4.386;2023-07-31T02:15:32;14.77;;;5.45;;
39674;SDS011;27790;50.840;4.386;2023-07-31T02:17:58;13.63;;;5.18;;
39674;SDS011;27790;50.840;4.386;2023-07-31T02:20:23;13.05;;;4.72;;
39674;SDS011;27790;50.840;4.386;2023-07-31T02:22:49;19.77;;;6.32;;
39674;SDS011;27790;50.840;4.386;2023-07-31T02:25:15;11.38;;;4.50;;
39674;SDS011;27790;50.840;4.386;2023-07-31T02:27:40;10.20;;;5.05;;
39674;SDS011;27790;50.840;4.386;2023-07-31T02:30:06;9.73;;;4.30;;
39674;SDS011;27790;50.840;4.386;2023-07-31T02:32:32;11.07;;;4.55;;
39674;SDS011;27790;50.840;4.386;2023-07-31T02:34:58;11.25;;;4.60;;
39674;SDS011;27790;50.840;4.386;2023-07-31T02:37:23;9.52;;;4.05;;
39674;SDS011;27790;50.840;4.386;2023-07-31T02:39:50;10.50;;;4.68;;
39674;SDS011;27790;50.840;4.386;2023-07-31T02:42:15;13.93;;;4.88;;
39674;SDS011;27790;50.840;4.386;2023-07-31T02:44:41;6.93;;;4.00;;
39674;SDS011;27790;50.840;4.386;2023-07-31T02:47:06;7.32;;;3.70;;
39674;SDS011;27790;50.840;4.386;2023-07-31T02:49:32;10.00;;;4.32;;
39674;SDS011;27790;50.840;4.386;2023-07-31T02:51:57;9.93;;;3.50;;
39674;SDS011;27790;50.840;4.386;2023-07-31T02:54:23;6.75;;;3.85;;
39674;SDS011;27790;50.840;4.386;2023-07-31T02:56:49;11.40;;;4.47;;
39674;SDS011;27790;50.840;4.386;2023-07-31T02:59:14;6.53;;;3.55;;
39674;SDS011;27790;50.840;4.386;2023-07-31T03:01:40;8.55;;;3.63;;
39674;SDS011;27790;50.840;4.386;2023-07-31T03:04:07;8.77;;;3.78;;
39674;SDS011;27790;50.840;4.386;2023-07-31T03:06:32;6.55;;;3.17;;
39674;SDS011;27790;50.840;4.386;2023-07-31T03:08:58;6.90;;;3.63;;
39674;SDS011;27790;50.840;4.386;2023-07-31T03:11:23;10.10;;;3.42;;
39674;SDS011;27790;50.840;4.386;2023-07-31T03:13:49;12.10;;;3.47;;
39674;SDS011;27790;50.840;4.386;2023-07-31T03:16:15;7.63;;;4.00;;
39674;SDS011;27790;50.840;4.386;2023-07-31T03:18:40;6.22;;;3.67;;
39674;SDS011;27790;50.840;4.386;2023-07-31T03:21:06;9.90;;;4.88;;
39674;SDS011;27790;50.840;4.386;2023-07-31T03:23:31;8.77;;;4.00;;
39674;SDS011;27790;50.840;4.386;2023-07-31T03:28:23;7.22;;;4.10;;
39674;SDS011;27790;50.840;4.386;2023-07-31T03:30:49;7.22;;;3.50;;
39674;SDS011;27790;50.840;4.386;2023-07-31T03:33:15;7.63;;;4.22;;
39674;SDS011;27790;50.840;4.386;2023-07-31T03:35:40;8.00;;;4.18;;
39674;SDS011;27790;50.840;4.386;2023-07-31T03:38:06;10.15;;;4.57;;
39674;SDS011;27790;50.840;4.386;2023-07-31T03:40:31;9.70;;;4.05;;
39674;SDS011;27790;50.840;4.386;2023-07-31T03:42:57;5.57;;;3.85;;
39674;SDS011;27790;50.840;4.386;2023-07-31T03:45:22;8.05;;;3.88;;
39674;SDS011;27790;50.840;4.386;2023-07-31T03:47:48;6.60;;;3.88;;
39674;SDS011;27790;50.840;4.386;2023-07-31T03:50:13;5.50;;;3.55;;
39674;SDS011;27790;50.840;4.386;2023-07-31T03:52:40;8.25;;;4.15;;
39674;SDS011;27790;50.840;4.386;2023-07-31T03:55:06;8.80;;;4.43;;
39674;SDS011;27790;50.840;4.386;2023-07-31T03:57:32;6.43;;;3.97;;
39674;SDS011;27790;50.840;4.386;2023-07-31T03:59:58;12.43;;;3.92;;
39674;SDS011;27790;50.840;4.386;2023-07-31T04:02:23;8.85;;;4.53;;
39674;SDS011;27790;50.840;4.386;2023-07-31T04:04:49;9.63;;;4.32;;
39674;SDS011;27790;50.840;4.386;2023-07-31T04:07:14;9.27;;;3.85;;
39674;SDS011;27790;50.840;4.386;2023-07-31T04:09:40;7.13;;;3.83;;
39674;SDS011;27790;50.840;4.386;2023-07-31T04:12:06;6.32;;;4.00;;
39674;SDS011;27790;50.840;4.386;2023-07-31T04:14:32;9.55;;;3.92;;
39674;SDS011;27790;50.840;4.386;2023-07-31T04:16:57;6.15;;;3.90;;
39674;SDS011;27790;50.840;4.386;2023-07-31T04:19:23;9.85;;;3.90;;
39674;SDS011;27790;50.840;4.386;2023-07-31T04:21:49;9.93;;;3.85;;
39674;SDS011;27790;50.840;4.386;2023-07-31T04:24:14;9.57;;;4.47;;
39674;SDS011;27790;50.840;4.386;2023-07-31T04:26:40;6.97;;;3.80;;
39674;SDS011;27790;50.840;4.386;2023-07-31T04:29:05;15.18;;;4.60;;
39674;SDS011;27790;50.840;4.386;2023-07-31T04:31:31;7.25;;;3.47;;
39674;SDS011;27790;50.840;4.386;2023-07-31T04:33:57;5.50;;;3.67;;
39674;SDS011;27790;50.840;4.386;2023-07-31T04:36:22;14.10;;;3.55;;
39674;SDS011;27790;50.840;4.386;2023-07-31T04:38:48;26.90;;;4.93;;
39674;SDS011;27790;50.840;4.386;2023-07-31T04:41:14;10.43;;;3.78;;
39674;SDS011;27790;50.840;4.386;2023-07-31T04:43:39;7.88;;;4.07;;
39674;SDS011;27790;50.840;4.386;2023-07-31T04:46:05;7.50;;;3.50;;
39674;SDS011;27790;50.840;4.386;2023-07-31T04:48:31;6.30;;;3.75;;
39674;SDS011;27790;50.840;4.386;2023-07-31T04:50:57;11.40;;;4.43;;
39674;SDS011;27790;50.840;4.386;2023-07-31T04:53:22;11.48;;;4.22;;
39674;SDS011;27790;50.840;4.386;2023-07-31T04:55:48;9.02;;;3.65;;
39674;SDS011;27790;50.840;4.386;2023-07-31T04:58:14;9.77;;;3.97;;
39674;SDS011;27790;50.840;4.386;2023-07-31T05:00:39;8.45;;;3.63;;
39674;SDS011;27790;50.840;4.386;2023-07-31T05:03:05;8.63;;;3.15;;
39674;SDS011;27790;50.840;4.386;2023-07-31T05:05:31;8.75;;;3.83;;
39674;SDS011;27790;50.840;4.386;2023-07-31T05:07:56;6.07;;;4.10;;
39674;SDS011;27790;50.840;4.386;2023-07-31T05:10:22;7.60;;;3.58;;
39674;SDS011;27790;50.840;4.386;2023-07-31T05:12:47;8.10;;;4.05;;
39674;SDS011;27790;50.840;4.386;2023-07-31T05:15:13;10.65;;;3.60;;
39674;SDS011;27790;50.840;4.386;2023-07-31T05:17:39;6.00;;;3.55;;
39674;SDS011;27790;50.840;4.386;2023-07-31T05:20:04;7.00;;;3.90;;
39674;SDS011;27790;50.840;4.386;2023-07-31T05:22:31;6.35;;;3.75;;
39674;SDS011;27790;50.840;4.386;2023-07-31T05:24:56;9.60;;;4.03;;
39674;SDS011;27790;50.840;4.386;2023-07-31T05:27:22;8.93;;;4.60;;
39674;SDS011;27790;50.840;4.386;2023-07-31T05:29:47;7.65;;;3.78;;
39674;SDS011;27790;50.840;4.386;2023-07-31T05:32:13;9.63;;;3.75;;
39674;SDS011;27790;50.840;4.386;2023-07-31T05:34:38;7.03;;;3.78;;
39674;SDS011;27790;50.840;4.386;2023-07-31T05:37:04;12.55;;;4.40;;
39674;SDS011;27790;50.840;4.386;2023-07-31T05:39:30;17.05;;;4.13;;
39674;SDS011;27790;50.840;4.386;2023-07-31T05:41:56;7.90;;;3.80;;
39674;SDS011;27790;50.840;4.386;2023-07-31T05:44:22;9.52;;;3.92;;
39674;SDS011;27790;50.840;4.386;2023-07-31T05:46:47;13.07;;;4.10;;
39674;SDS011;27790;50.840;4.386;2023-07-31T05:49:13;11.95;;;3.47;;
39674;SDS011;27790;50.840;4.386;2023-07-31T05:51:38;8.88;;;4.07;;
39674;SDS011;27790;50.840;4.386;2023-07-31T05:54:04;8.73;;;4.28;;
39674;SDS011;27790;50.840;4.386;2023-07-31T05:56:29;12.10;;;4.00;;
39674;SDS011;27790;50.840;4.386;2023-07-31T05:58:56;6.88;;;3.35;;
39674;SDS011;27790;50.840;4.386;2023-07-31T06:01:22;10.55;;;4.75;;
39674;SDS011;27790;50.840;4.386;2023-07-31T06:03:47;5.97;;;3.42;;
39674;SDS011;27790;50.840;4.386;2023-07-31T06:06:13;11.10;;;3.97;;
39674;SDS011;27790;50.840;4.386;2023-07-31T06:08:39;9.80;;;4.50;;
39674;SDS011;27790;50.840;4.386;2023-07-31T06:11:05;13.15;;;4.22;;
39674;SDS011;27790;50.840;4.386;2023-07-31T06:13:33;6.75;;;4.03;;
39674;SDS011;27790;50.840;4.386;2023-07-31T06:15:59;6.50;;;3.25;;
39674;SDS011;27790;50.840;4.386;2023-07-31T06:18:24;8.20;;;3.85;;
39674;SDS011;27790;50.840;4.386;2023-07-31T06:20:50;6.70;;;3.50;;
39674;SDS011;27790;50.840;4.386;2023-07-31T06:23:18;7.22;;;3.45;;
39674;SDS011;27790;50.840;4.386;2023-07-31T06:25:46;7.72;;;3.53;;
39674;SDS011;27790;50.840;4.386;2023-07-31T06:28:12;10.30;;;3.75;;
39674;SDS011;27790;50.840;4.386;2023-07-31T06:30:37;7.18;;;3.08;;
39674;SDS011;27790;50.840;4.386;2023-07-31T06:33:03;12.23;;;3.83;;
39674;SDS011;27790;50.840;4.386;2023-07-31T06:35:28;10.60;;;3.85;;
39674;SDS011;27790;50.840;4.386;2023-07-31T06:37:54;11.07;;;4.25;;
39674;SDS011;27790;50.840;4.386;2023-07-31T06:40:20;9.43;;;3.67;;
39674;SDS011;27790;50.840;4.386;2023-07-31T06:42:46;9.13;;;3.65;;
39674;SDS011;27790;50.840;4.386;2023-07-31T06:45:12;6.50;;;3.15;;
39674;SDS011;27790;50.840;4.386;2023-07-31T06:47:37;10.85;;;3.42;;
39674;SDS011;27790;50.840;4.386;2023-07-31T06:50:03;7.05;;;3.20;;
39674;SDS011;27790;50.840;4.386;2023-07-31T06:52:30;6.95;;;3.47;;
39674;SDS011;27790;50.840;4.386;2023-07-31T06:57:44;9.30;;;3.10;;
39674;SDS011;27790;50.840;4.386;2023-07-31T07:00:10;7.00;;;3.10;;
39674;SDS011;27790;50.840;4.386;2023-07-31T07:02:36;13.55;;;3.85;;
39674;SDS011;27790;50.840;4.386;2023-07-31T07:05:02;9.18;;;3.50;;
39674;SDS011;27790;50.840;4.386;2023-07-31T07:07:28;6.55;;;2.70;;
39674;SDS011;27790;50.840;4.386;2023-07-31T07:09:53;12.45;;;3.22;;
39674;SDS011;27790;50.840;4.386;2023-07-31T07:12:19;10.52;;;3.70;;
39674;SDS011;27790;50.840;4.386;2023-07-31T07:14:44;12.45;;;3.35;;
39674;SDS011;27790;50.840;4.386;2023-07-31T07:17:13;12.93;;;2.70;;
39674;SDS011;27790;50.840;4.386;2023-07-31T07:19:40;9.32;;;3.10;;
39674;SDS011;27790;50.840;4.386;2023-07-31T07:22:06;9.00;;;3.72;;
39674;SDS011;27790;50.840;4.386;2023-07-31T07:24:32;8.32;;;3.10;;
39674;SDS011;27790;50.840;4.386;2023-07-31T07:26:58;7.82;;;3.22;;
39674;SDS011;27790;50.840;4.386;2023-07-31T07:29:23;7.20;;;3.05;;
39674;SDS011;27790;50.840;4.386;2023-07-31T07:31:49;7.55;;;2.88;;
39674;SDS011;27790;50.840;4.386;2023-07-31T07:34:14;5.13;;;3.20;;
39674;SDS011;27790;50.840;4.386;2023-07-31T07:36:40;8.88;;;3.20;;
39674;SDS011;27790;50.840;4.386;2023-07-31T07:39:06;7.60;;;3.15;;
39674;SDS011;27790;50.840;4.386;2023-07-31T07:41:31;8.45;;;2.95;;
39674;SDS011;27790;50.840;4.386;2023-07-31T07:43:57;7.15;;;3.13;;
39674;SDS011;27790;50.840;4.386;2023-07-31T07:46:22;7.80;;;2.80;;
39674;SDS011;27790;50.840;4.386;2023-07-31T07:48:48;7.95;;;3.33;;
39674;SDS011;27790;50.840;4.386;2023-07-31T07:51:13;7.45;;;3.80;;
39674;SDS011;27790;50.840;4.386;2023-07-31T07:53:39;4.95;;;3.17;;
39674;SDS011;27790;50.840;4.386;2023-07-31T07:56:04;9.20;;;2.97;;
39674;SDS011;27790;50.840;4.386;2023-07-31T07:58:30;8.15;;;2.90;;
39674;SDS011;27790;50.840;4.386;2023-07-31T08:00:56;6.15;;;3.13;;
39674;SDS011;27790;50.840;4.386;2023-07-31T08:03:21;9.52;;;3.20;;
39674;SDS011;27790;50.840;4.386;2023-07-31T08:05:47;8.90;;;2.83;;
39674;SDS011;27790;50.840;4.386;2023-07-31T08:08:15;6.70;;;2.90;;
39674;SDS011;27790;50.840;4.386;2023-07-31T08:10:41;8.90;;;3.22;;
39674;SDS011;27790;50.840;4.386;2023-07-31T08:13:07;3.63;;;2.42;;
39674;SDS011;27790;50.840;4.386;2023-07-31T08:15:34;3.65;;;2.75;;
39674;SDS011;27790;50.840;4.386;2023-07-31T08:18:00;5.53;;;3.10;;
39674;SDS011;27790;50.840;4.386;2023-07-31T08:20:26;6.47;;;2.60;;
39674;SDS011;27790;50.840;4.386;2023-07-31T08:22:52;7.70;;;2.45;;
39674;SDS011;27790;50.840;4.386;2023-07-31T08:25:18;6.95;;;3.22;;
39674;SDS011;27790;50.840;4.386;2023-07-31T08:27:43;5.25;;;2.53;;
39674;SDS011;27790;50.840;4.386;2023-07-31T08:30:09;6.57;;;2.88;;
39674;SDS011;27790;50.840;4.386;2023-07-31T08:32:36;3.83;;;2.33;;
39674;SDS011;27790;50.840;4.386;2023-07-31T08:35:02;6.82;;;2.58;;
39674;SDS011;27790;50.840;4.386;2023-07-31T08:37:28;8.82;;;3.05;;
39674;SDS011;27790;50.840;4.386;2023-07-31T08:39:53;7.22;;;2.70;;
39674;SDS011;27790;50.840;4.386;2023-07-31T08:42:19;4.65;;;2.78;;
39674;SDS011;27790;50.840;4.386;2023-07-31T08:44:45;5.18;;;2.80;;
39674;SDS011;27790;50.840;4.386;2023-07-31T08:47:12;7.00;;;2.97;;
39674;SDS011;27790;50.840;4.386;2023-07-31T08:49:38;13.73;;;3.03;;
39674;SDS011;27790;50.840;4.386;2023-07-31T08:52:06;3.67;;;2.75;;
39674;SDS011;27790;50.840;4.386;2023-07-31T08:54:32;6.78;;;2.67;;
39674;SDS011;27790;50.840;4.386;2023-07-31T08:56:58;7.63;;;2.90;;
39674;SDS011;27790;50.840;4.386;2023-07-31T08:59:25;7.75;;;2.53;;
39674;SDS011;27790;50.840;4.386;2023-07-31T09:01:56;8.32;;;3.30;;
39674;SDS011;27790;50.840;4.386;2023-07-31T09:04:28;9.23;;;2.83;;
39674;SDS011;27790;50.840;4.386;2023-07-31T09:07:00;5.82;;;2.90;;
39674;SDS011;27790;50.840;4.386;2023-07-31T09:09:28;4.78;;;3.00;;
39674;SDS011;27790;50.840;4.386;2023-07-31T09:11:54;8.27;;;2.83;;
39674;SDS011;27790;50.840;4.386;2023-07-31T09:14:20;8.05;;;2.90;;
39674;SDS011;27790;50.840;4.386;2023-07-31T09:16:53;11.70;;;3.25;;
39674;SDS011;27790;50.840;4.386;2023-07-31T09:19:24;6.95;;;4.05;;
39674;SDS011;27790;50.840;4.386;2023-07-31T09:21:51;7.82;;;3.20;;
39674;SDS011;27790;50.840;4.386;2023-07-31T09:24:29;4.05;;;2.88;;
39674;SDS011;27790;50.840;4.386;2023-07-31T09:26:57;8.00;;;3.42;;
39674;SDS011;27790;50.840;4.386;2023-07-31T09:29:24;5.90;;;3.28;;
39674;SDS011;27790;50.840;4.386;2023-07-31T09:31:51;8.05;;;3.55;;
39674;SDS011;27790;50.840;4.386;2023-07-31T09:34:17;6.10;;;2.90;;
39674;SDS011;27790;50.840;4.386;2023-07-31T09:36:45;6.70;;;3.40;;
39674;SDS011;27790;50.840;4.386;2023-07-31T09:39:12;6.60;;;3.75;;
39674;SDS011;27790;50.840;4.386;2023-07-31T09:41:39;10.68;;;3.92;;
39674;SDS011;27790;50.840;4.386;2023-07-31T09:44:07;8.02;;;3.78;;
39674;SDS011;27790;50.840;4.386;2023-07-31T09:46:34;5.05;;;3.45;;
39674;SDS011;27790;50.840;4.386;2023-07-31T09:49:08;5.95;;;3.40;;
39674;SDS011;27790;50.840;4.386;2023-07-31T09:51:41;12.88;;;5.15;;
39674;SDS011;27790;50.840;4.386;2023-07-31T09:56:41;9.65;;;3.40;;
39674;SDS011;27790;50.840;4.386;2023-07-31T09:59:07;10.23;;;3.72;;
39674;SDS011;27790;50.840;4.386;2023-07-31T10:01:35;10.30;;;3.92;;
39674;SDS011;27790;50.840;4.386;2023-07-31T10:04:01;10.95;;;4.13;;
39674;SDS011;27790;50.840;4.386;2023-07-31T10:06:28;13.27;;;4.57;;
39674;SDS011;27790;50.840;4.386;2023-07-31T10:08:54;9.70;;;5.20;;
39674;SDS011;27790;50.840;4.386;2023-07-31T10:11:20;12.50;;;5.00;;
39674;SDS011;27790;50.840;4.386;2023-07-31T10:13:47;12.27;;;5.40;;
39674;SDS011;27790;50.840;4.386;2023-07-31T10:16:13;10.52;;;5.00;;
39674;SDS011;27790;50.840;4.386;2023-07-31T10:18:41;8.35;;;4.22;;
39674;SDS011;27790;50.840;4.386;2023-07-31T10:21:08;10.27;;;5.75;;
39674;SDS011;27790;50.840;4.386;2023-07-31T10:23:34;10.77;;;5.82;;
39674;SDS011;27790;50.840;4.386;2023-07-31T10:26:00;8.50;;;4.05;;
39674;SDS011;27790;50.840;4.386;2023-07-31T10:28:27;11.73;;;5.65;;
39674;SDS011;27790;50.840;4.386;2023-07-31T10:30:54;6.05;;;3.92;;
39674;SDS011;27790;50.840;4.386;2023-07-31T10:33:20;7.32;;;3.78;;
39674;SDS011;27790;50.840;4.386;2023-07-31T10:35:49;18.90;;;4.65;;
39674;SDS011;27790;50.840;4.386;2023-07-31T10:38:18;7.90;;;4.55;;
39674;SDS011;27790;50.840;4.386;2023-07-31T10:40:44;13.73;;;4.78;;
39674;SDS011;27790;50.840;4.386;2023-07-31T10:43:10;16.55;;;4.38;;
39674;SDS011;27790;50.840;4.386;2023-07-31T10:45:50;8.82;;;4.55;;
39674;SDS011;27790;50.840;4.386;2023-07-31T10:48:16;9.50;;;4.85;;
39674;SDS011;27790;50.840;4.386;2023-07-31T10:50:48;8.00;;;4.22;;
39674;SDS011;27790;50.840;4.386;2023-07-31T10:53:22;11.85;;;4.55;;
39674;SDS011;27790;50.840;4.386;2023-07-31T10:55:51;6.88;;;4.03;;
39674;SDS011;27790;50.840;4.386;2023-07-31T10:58:18;8.77;;;4.13;;
39674;SDS011;27790;50.840;4.386;2023-07-31T11:00:45;8.13;;;4.10;;
39674;SDS011;27790;50.840;4.386;2023-07-31T11:03:13;9.98;;;4.30;;
39674;SDS011;27790;50.840;4.386;2023-07-31T11:05:53;11.52;;;4.18;;
39674;SDS011;27790;50.840;4.386;2023-07-31T11:08:24;8.83;;;3.97;;
39674;SDS011;27790;50.840;4.386;2023-07-31T11:11:05;11.85;;;4.43;;
39674;SDS011;27790;50.840;4.386;2023-07-31T11:15:59;8.88;;;4.38;;
39674;SDS011;27790;50.840;4.386;2023-07-31T11:18:26;8.32;;;4.05;;
39674;SDS011;27790;50.840;4.386;2023-07-31T11:20:52;13.07;;;4.05;;
39674;SDS011;27790;50.840;4.386;2023-07-31T11:23:19;6.95;;;3.97;;
39674;SDS011;27790;50.840;4.386;2023-07-31T11:25:45;8.23;;;3.80;;
39674;SDS011;27790;50.840;4.386;2023-07-31T11:28:12;13.40;;;4.10;;
39674;SDS011;27790;50.840;4.386;2023-07-31T11:30:40;13.65;;;5.20;;
39674;SDS011;27790;50.840;4.386;2023-07-31T11:33:07;11.75;;;5.95;;
39674;SDS011;27790;50.840;4.386;2023-07-31T11:35:34;13.48;;;4.10;;
39674;SDS011;27790;50.840;4.386;2023-07-31T11:38:06;11.00;;;4.40;;
39674;SDS011;27790;50.840;4.386;2023-07-31T11:40:40;11.02;;;4.53;;
39674;SDS011;27790;50.840;4.386;2023-07-31T11:43:07;5.82;;;3.95;;
39674;SDS011;27790;50.840;4.386;2023-07-31T11:45:32;12.48;;;5.05;;
39674;SDS011;27790;50.840;4.386;2023-07-31T11:48:00;9.18;;;4.13;;
39674;SDS011;27790;50.840;4.386;2023-07-31T11:50:26;8.52;;;3.40;;
39674;SDS011;27790;50.840;4.386;2023-07-31T11:52:59;8.93;;;3.80;;
39674;SDS011;27790;50.840;4.386;2023-07-31T11:55:28;9.55;;;3.97;;
39674;SDS011;27790;50.840;4.386;2023-07-31T11:57:56;10.50;;;4.25;;
39674;SDS011;27790;50.840;4.386;2023-07-31T12:00:23;10.63;;;3.88;;
39674;SDS011;27790;50.840;4.386;2023-07-31T12:02:51;17.63;;;4.97;;
39674;SDS011;27790;50.840;4.386;2023-07-31T12:05:17;5.07;;;3.05;;
39674;SDS011;27790;50.840;4.386;2023-07-31T12:07:47;8.65;;;4.32;;
39674;SDS011;27790;50.840;4.386;2023-07-31T12:15:33;13.73;;;4.32;;
39674;SDS011;27790;50.840;4.386;2023-07-31T12:18:04;11.05;;;4.28;;
39674;SDS011;27790;50.840;4.386;2023-07-31T12:20:40;7.88;;;4.40;;
39674;SDS011;27790;50.840;4.386;2023-07-31T12:23:19;12.75;;;4.20;;
39674;SDS011;27790;50.840;4.386;2023-07-31T12:26:04;8.18;;;3.85;;
39674;SDS011;27790;50.840;4.386;2023-07-31T12:31:11;12.65;;;4.50;;
39674;SDS011;27790;50.840;4.386;2023-07-31T12:33:38;14.13;;;4.90;;
39674;SDS011;27790;50.840;4.386;2023-07-31T12:36:09;13.80;;;4.90;;
39674;SDS011;27790;50.840;4.386;2023-07-31T12:38:35;15.63;;;5.05;;
39674;SDS011;27790;50.840;4.386;2023-07-31T12:41:00;9.20;;;4.28;;
39674;SDS011;27790;50.840;4.386;2023-07-31T12:43:26;12.98;;;4.30;;
39674;SDS011;27790;50.840;4.386;2023-07-31T12:45:53;8.82;;;4.13;;
39674;SDS011;27790;50.840;4.386;2023-07-31T12:48:20;10.15;;;4.05;;
39674;SDS011;27790;50.840;4.386;2023-07-31T12:50:45;9.02;;;3.88;;
39674;SDS011;27790;50.840;4.386;2023-07-31T12:53:11;9.23;;;3.83;;
39674;SDS011;27790;50.840;4.386;2023-07-31T12:55:37;6.03;;;3.53;;
39674;SDS011;27790;50.840;4.386;2023-07-31T12:58:02;7.15;;;3.72;;
39674;SDS011;27790;50.840;4.386;2023-07-31T13:00:28;8.55;;;4.40;;
39674;SDS011;27790;50.840;4.386;2023-07-31T13:02:54;7.95;;;3.97;;
39674;SDS011;27790;50.840;4.386;2023-07-31T13:05:20;7.75;;;4.68;;
39674;SDS011;27790;50.840;4.386;2023-07-31T13:07:46;7.60;;;3.33;;
39674;SDS011;27790;50.840;4.386;2023-07-31T13:10:12;11.57;;;4.10;;
39674;SDS011;27790;50.840;4.386;2023-07-31T13:12:38;10.02;;;3.70;;
39674;SDS011;27790;50.840;4.386;2023-07-31T13:15:04;7.32;;;3.67;;
39674;SDS011;27790;50.840;4.386;2023-07-31T13:17:31;5.75;;;2.92;;
39674;SDS011;27790;50.840;4.386;2023-07-31T13:19:57;7.25;;;3.47;;
39674;SDS011;27790;50.840;4.386;2023-07-31T13:22:23;6.60;;;3.88;;
39674;SDS011;27790;50.840;4.386;2023-07-31T13:24:49;4.40;;;2.92;;
39674;SDS011;27790;50.840;4.386;2023-07-31T13:27:14;8.27;;;3.67;;
39674;SDS011;27790;50.840;4.386;2023-07-31T13:29:43;7.78;;;2.67;;
39674;SDS011;27790;50.840;4.386;2023-07-31T13:32:09;8.85;;;2.97;;
39674;SDS011;27790;50.840;4.386;2023-07-31T13:34:35;3.47;;;2.80;;
39674;SDS011;27790;50.840;4.386;2023-07-31T13:37:01;3.25;;;2.55;;
39674;SDS011;27790;50.840;4.386;2023-07-31T13:39:26;5.80;;;2.90;;
39674;SDS011;27790;50.840;4.386;2023-07-31T13:41:52;6.45;;;2.85;;
39674;SDS011;27790;50.840;4.386;2023-07-31T13:44:18;6.47;;;3.10;;
39674;SDS011;27790;50.840;4.386;2023-07-31T13:46:43;3.22;;;2.47;;
39674;SDS011;27790;50.840;4.386;2023-07-31T13:49:09;7.20;;;3.05;;
39674;SDS011;27790;50.840;4.386;2023-07-31T13:51:34;5.57;;;3.15;;
39674;SDS011;27790;50.840;4.386;2023-07-31T13:54:00;5.68;;;2.90;;
39674;SDS011;27790;50.840;4.386;2023-07-31T13:56:26;6.80;;;3.20;;
39674;SDS011;27790;50.840;4.386;2023-07-31T13:58:52;6.28;;;3.78;;
39674;SDS011;27790;50.840;4.386;2023-07-31T14:01:17;7.05;;;3.35;;
39674;SDS011;27790;50.840;4.386;2023-07-31T14:03:43;7.32;;;3.15;;
39674;SDS011;27790;50.840;4.386;2023-07-31T14:06:08;4.28;;;2.83;;
39674;SDS011;27790;50.840;4.386;2023-07-31T14:08:34;6.05;;;2.83;;
39674;SDS011;27790;50.840;4.386;2023-07-31T14:11:00;7.93;;;3.50;;
39674;SDS011;27790;50.840;4.386;2023-07-31T14:13:25;4.80;;;3.00;;
39674;SDS011;27790;50.840;4.386;2023-07-31T14:15:51;5.78;;;3.10;;
39674;SDS011;27790;50.840;4.386;2023-07-31T14:18:18;4.72;;;2.50;;
39674;SDS011;27790;50.840;4.386;2023-07-31T14:20:43;6.65;;;3.35;;
39674;SDS011;27790;50.840;4.386;2023-07-31T14:23:09;7.18;;;3.22;;
39674;SDS011;27790;50.840;4.386;2023-07-31T14:25:34;6.10;;;3.10;;
39674;SDS011;27790;50.840;4.386;2023-07-31T14:28:00;6.25;;;3.15;;
39674;SDS011;27790;50.840;4.386;2023-07-31T14:30:25;6.93;;;3.35;;
39674;SDS011;27790;50.840;4.386;2023-07-31T14:32:51;6.07;;;2.80;;
39674;SDS011;27790;50.840;4.386;2023-07-31T14:35:17;6.05;;;3.10;;
39674;SDS011;27790;50.840;4.386;2023-07-31T14:37:43;4.85;;;2.95;;
39674;SDS011;27790;50.840;4.386;2023-07-31T14:40:10;5.45;;;2.85;;
39674;SDS011;27790;50.840;4.386;2023-07-31T14:42:37;4.10;;;2.78;;
39674;SDS011;27790;50.840;4.386;2023-07-31T14:45:03;6.57;;;2.67;;
39674;SDS011;27790;50.840;4.386;2023-07-31T14:47:30;4.93;;;2.45;;
39674;SDS011;27790;50.840;4.386;2023-07-31T14:49:57;5.07;;;2.10;;
39674;SDS011;27790;50.840;4.386;2023-07-31T14:52:22;5.72;;;2.25;;
39674;SDS011;27790;50.840;4.386;2023-07-31T14:54:48;4.50;;;2.33;;
39674;SDS011;27790;50.840;4.386;2023-07-31T14:57:14;3.28;;;2.03;;
39674;SDS011;27790;50.840;4.386;2023-07-31T14:59:39;4.53;;;1.90;;